sensor_id;sensor_type;location;lat;lon;timestamp;P1;durP1;ratioP1;P2;durP2;ratioP2
63959;SDS011;50136;51.374;0.096;2023-10-09T00:03:23;10.45;;;4.50;;
63959;SDS011;50136;51.374;0.096;2023-10-09T00:13:27;6.78;;;4.20;;
63959;SDS011;50136;51.374;0.096;2023-10-09T00:23:29;6.63;;;4.20;;
63959;SDS011;50136;51.374;0.096;2023-10-09T00:33:32;9.60;;;4.00;;
63959;SDS011;50136;51.374;0.096;2023-10-09T00:43:35;7.95;;;4.78;;
63959;SDS011;50136;51.374;0.096;2023-10-09T00:53:41;9.00;;;5.22;;
63959;SDS011;50136;51.374;0.096;2023-10-09T01:03:44;8.13;;;4.38;;
63959;SDS011;50136;51.374;0.096;2023-10-09T01:13:49;10.43;;;4.05;;
63959;SDS011;50136;51.374;0.096;2023-10-09T01:23:53;6.18;;;3.92;;
63959;SDS011;50136;51.374;0.096;2023-10-09T01:33:55;5.47;;;3.60;;
63959;SDS011;50136;51.374;0.096;2023-10-09T01:43:59;5.75;;;3.90;;
63959;SDS011;50136;51.374;0.096;2023-10-09T01:54:01;7.30;;;4.07;;
63959;SDS011;50136;51.374;0.096;2023-10-09T02:04:05;7.90;;;3.75;;
63959;SDS011;50136;51.374;0.096;2023-10-09T02:14:08;7.15;;;3.72;;
63959;SDS011;50136;51.374;0.096;2023-10-09T02:24:11;9.30;;;4.00;;
63959;SDS011;50136;51.374;0.096;2023-10-09T02:34:14;8.18;;;4.00;;
63959;SDS011;50136;51.374;0.096;2023-10-09T02:44:19;6.85;;;4.13;;
63959;SDS011;50136;51.374;0.096;2023-10-09T02:54:21;13.98;;;5.20;;
63959;SDS011;50136;51.374;0.096;2023-10-09T03:04:27;8.93;;;4.88;;
63959;SDS011;50136;51.374;0.096;2023-10-09T03:14:31;9.05;;;4.15;;
63959;SDS011;50136;51.374;0.096;2023-10-09T03:24:36;7.00;;;4.05;;
63959;SDS011;50136;51.374;0.096;2023-10-09T03:34:38;8.95;;;4.32;;
63959;SDS011;50136;51.374;0.096;2023-10-09T03:44:42;8.07;;;4.40;;
63959;SDS011;50136;51.374;0.096;2023-10-09T03:54:44;8.50;;;4.28;;
63959;SDS011;50136;51.374;0.096;2023-10-09T04:04:47;9.55;;;4.05;;
63959;SDS011;50136;51.374;0.096;2023-10-09T04:14:50;11.45;;;5.70;;
63959;SDS011;50136;51.374;0.096;2023-10-09T04:24:53;7.55;;;3.55;;
63959;SDS011;50136;51.374;0.096;2023-10-09T04:34:55;9.18;;;5.28;;
63959;SDS011;50136;51.374;0.096;2023-10-09T04:44:58;8.18;;;4.40;;
63959;SDS011;50136;51.374;0.096;2023-10-09T04:55:01;8.63;;;4.28;;
63959;SDS011;50136;51.374;0.096;2023-10-09T05:05:05;7.53;;;4.30;;
63959;SDS011;50136;51.374;0.096;2023-10-09T05:15:08;10.38;;;5.70;;
63959;SDS011;50136;51.374;0.096;2023-10-09T05:25:12;6.65;;;3.75;;
63959;SDS011;50136;51.374;0.096;2023-10-09T05:35:15;12.07;;;4.57;;
63959;SDS011;50136;51.374;0.096;2023-10-09T05:45:18;10.48;;;4.80;;
63959;SDS011;50136;51.374;0.096;2023-10-09T05:55:21;8.10;;;4.43;;
63959;SDS011;50136;51.374;0.096;2023-10-09T06:05:25;8.10;;;4.72;;
63959;SDS011;50136;51.374;0.096;2023-10-09T06:15:28;8.98;;;4.85;;
63959;SDS011;50136;51.374;0.096;2023-10-09T06:25:38;9.10;;;4.97;;
63959;SDS011;50136;51.374;0.096;2023-10-09T06:35:40;11.85;;;5.35;;
63959;SDS011;50136;51.374;0.096;2023-10-09T06:45:43;9.48;;;5.13;;
63959;SDS011;50136;51.374;0.096;2023-10-09T06:55:46;11.88;;;5.10;;
63959;SDS011;50136;51.374;0.096;2023-10-09T07:05:52;8.38;;;4.20;;
63959;SDS011;50136;51.374;0.096;2023-10-09T07:16:04;8.82;;;4.72;;
63959;SDS011;50136;51.374;0.096;2023-10-09T07:26:08;10.18;;;6.35;;
63959;SDS011;50136;51.374;0.096;2023-10-09T07:36:15;11.75;;;5.63;;
63959;SDS011;50136;51.374;0.096;2023-10-09T07:46:45;10.70;;;6.32;;
63959;SDS011;50136;51.374;0.096;2023-10-09T07:56:48;9.73;;;4.82;;
63959;SDS011;50136;51.374;0.096;2023-10-09T08:06:52;13.43;;;6.55;;
63959;SDS011;50136;51.374;0.096;2023-10-09T08:17:15;11.43;;;5.93;;
63959;SDS011;50136;51.374;0.096;2023-10-09T08:27:18;9.30;;;5.13;;
63959;SDS011;50136;51.374;0.096;2023-10-09T08:37:21;11.55;;;5.40;;
63959;SDS011;50136;51.374;0.096;2023-10-09T08:47:25;10.00;;;5.95;;
63959;SDS011;50136;51.374;0.096;2023-10-09T08:57:27;19.02;;;9.02;;
63959;SDS011;50136;51.374;0.096;2023-10-09T09:07:31;8.60;;;4.72;;
63959;SDS011;50136;51.374;0.096;2023-10-09T09:17:33;13.60;;;5.50;;
63959;SDS011;50136;51.374;0.096;2023-10-09T09:27:46;15.88;;;5.13;;
63959;SDS011;50136;51.374;0.096;2023-10-09T09:37:51;11.13;;;5.38;;
63959;SDS011;50136;51.374;0.096;2023-10-09T09:47:56;9.27;;;5.38;;
63959;SDS011;50136;51.374;0.096;2023-10-09T09:58:01;12.20;;;6.57;;
63959;SDS011;50136;51.374;0.096;2023-10-09T10:08:06;12.55;;;6.55;;
63959;SDS011;50136;51.374;0.096;2023-10-09T10:18:09;14.98;;;5.43;;
63959;SDS011;50136;51.374;0.096;2023-10-09T10:28:17;10.93;;;4.78;;
63959;SDS011;50136;51.374;0.096;2023-10-09T10:38:26;10.43;;;4.55;;
63959;SDS011;50136;51.374;0.096;2023-10-09T10:48:34;7.90;;;4.35;;
63959;SDS011;50136;51.374;0.096;2023-10-09T10:58:39;11.05;;;4.78;;
63959;SDS011;50136;51.374;0.096;2023-10-09T11:08:44;9.00;;;4.38;;
63959;SDS011;50136;51.374;0.096;2023-10-09T11:18:47;8.20;;;3.78;;
63959;SDS011;50136;51.374;0.096;2023-10-09T11:29:09;8.43;;;3.90;;
63959;SDS011;50136;51.374;0.096;2023-10-09T11:39:23;11.45;;;4.82;;
63959;SDS011;50136;51.374;0.096;2023-10-09T11:49:29;11.80;;;4.32;;
63959;SDS011;50136;51.374;0.096;2023-10-09T11:59:32;9.55;;;4.35;;
63959;SDS011;50136;51.374;0.096;2023-10-09T12:09:36;9.23;;;4.65;;
63959;SDS011;50136;51.374;0.096;2023-10-09T12:19:38;15.85;;;5.45;;
63959;SDS011;50136;51.374;0.096;2023-10-09T12:29:43;7.93;;;4.38;;
63959;SDS011;50136;51.374;0.096;2023-10-09T12:39:47;8.52;;;4.00;;
63959;SDS011;50136;51.374;0.096;2023-10-09T12:49:51;10.27;;;6.30;;
63959;SDS011;50136;51.374;0.096;2023-10-09T13:10:04;8.88;;;5.65;;
63959;SDS011;50136;51.374;0.096;2023-10-09T13:20:07;12.65;;;5.80;;
63959;SDS011;50136;51.374;0.096;2023-10-09T13:30:13;16.38;;;6.40;;
63959;SDS011;50136;51.374;0.096;2023-10-09T13:40:17;14.15;;;6.22;;
63959;SDS011;50136;51.374;0.096;2023-10-09T13:50:20;15.55;;;4.75;;
63959;SDS011;50136;51.374;0.096;2023-10-09T14:00:24;15.18;;;4.55;;
63959;SDS011;50136;51.374;0.096;2023-10-09T14:10:27;8.85;;;4.57;;
63959;SDS011;50136;51.374;0.096;2023-10-09T14:20:31;11.57;;;6.15;;
63959;SDS011;50136;51.374;0.096;2023-10-09T14:30:35;9.35;;;5.43;;
63959;SDS011;50136;51.374;0.096;2023-10-09T14:40:40;11.57;;;5.32;;
63959;SDS011;50136;51.374;0.096;2023-10-09T14:50:50;13.93;;;5.40;;
63959;SDS011;50136;51.374;0.096;2023-10-09T15:00:53;11.32;;;5.32;;
63959;SDS011;50136;51.374;0.096;2023-10-09T15:10:57;12.38;;;5.90;;
63959;SDS011;50136;51.374;0.096;2023-10-09T15:20:59;12.57;;;5.38;;
63959;SDS011;50136;51.374;0.096;2023-10-09T15:31:06;11.63;;;5.53;;
63959;SDS011;50136;51.374;0.096;2023-10-09T15:41:08;15.63;;;5.57;;
63959;SDS011;50136;51.374;0.096;2023-10-09T15:51:12;10.93;;;5.50;;
63959;SDS011;50136;51.374;0.096;2023-10-09T16:01:17;12.63;;;5.30;;
63959;SDS011;50136;51.374;0.096;2023-10-09T16:11:24;16.10;;;5.68;;
63959;SDS011;50136;51.374;0.096;2023-10-09T16:21:26;12.93;;;5.30;;
63959;SDS011;50136;51.374;0.096;2023-10-09T16:31:30;10.73;;;4.95;;
63959;SDS011;50136;51.374;0.096;2023-10-09T16:41:32;16.30;;;5.20;;
63959;SDS011;50136;51.374;0.096;2023-10-09T16:51:36;9.00;;;4.50;;
63959;SDS011;50136;51.374;0.096;2023-10-09T17:01:39;9.80;;;5.28;;
63959;SDS011;50136;51.374;0.096;2023-10-09T17:11:43;18.83;;;7.45;;
63959;SDS011;50136;51.374;0.096;2023-10-09T17:21:45;13.73;;;6.05;;
63959;SDS011;50136;51.374;0.096;2023-10-09T17:31:48;17.70;;;8.15;;
63959;SDS011;50136;51.374;0.096;2023-10-09T17:41:50;12.25;;;6.90;;
63959;SDS011;50136;51.374;0.096;2023-10-09T17:51:55;21.15;;;8.55;;
63959;SDS011;50136;51.374;0.096;2023-10-09T18:01:57;20.10;;;10.15;;
63959;SDS011;50136;51.374;0.096;2023-10-09T18:12:02;16.10;;;7.63;;
63959;SDS011;50136;51.374;0.096;2023-10-09T18:22:05;21.80;;;10.90;;
63959;SDS011;50136;51.374;0.096;2023-10-09T18:32:08;12.00;;;6.72;;
63959;SDS011;50136;51.374;0.096;2023-10-09T18:42:10;25.02;;;9.68;;
63959;SDS011;50136;51.374;0.096;2023-10-09T18:52:14;20.88;;;7.60;;
63959;SDS011;50136;51.374;0.096;2023-10-09T19:02:16;15.93;;;8.02;;
63959;SDS011;50136;51.374;0.096;2023-10-09T19:12:21;19.13;;;8.15;;
63959;SDS011;50136;51.374;0.096;2023-10-09T19:22:23;21.95;;;9.27;;
63959;SDS011;50136;51.374;0.096;2023-10-09T19:32:27;21.42;;;9.43;;
63959;SDS011;50136;51.374;0.096;2023-10-09T19:42:29;24.98;;;10.00;;
63959;SDS011;50136;51.374;0.096;2023-10-09T19:52:34;30.20;;;9.95;;
63959;SDS011;50136;51.374;0.096;2023-10-09T20:02:36;19.02;;;10.02;;
63959;SDS011;50136;51.374;0.096;2023-10-09T20:12:42;22.40;;;11.43;;
63959;SDS011;50136;51.374;0.096;2023-10-09T20:22:45;21.35;;;11.63;;
63959;SDS011;50136;51.374;0.096;2023-10-09T20:32:48;23.50;;;12.02;;
63959;SDS011;50136;51.374;0.096;2023-10-09T20:42:50;18.65;;;11.23;;
63959;SDS011;50136;51.374;0.096;2023-10-09T20:52:54;17.60;;;10.13;;
63959;SDS011;50136;51.374;0.096;2023-10-09T21:02:56;16.27;;;9.43;;
63959;SDS011;50136;51.374;0.096;2023-10-09T21:12:59;14.57;;;10.25;;
63959;SDS011;50136;51.374;0.096;2023-10-09T21:23:02;19.52;;;8.82;;
63959;SDS011;50136;51.374;0.096;2023-10-09T21:33:07;16.90;;;9.25;;
63959;SDS011;50136;51.374;0.096;2023-10-09T21:43:10;21.95;;;8.85;;
63959;SDS011;50136;51.374;0.096;2023-10-09T21:53:13;16.38;;;9.35;;
63959;SDS011;50136;51.374;0.096;2023-10-09T22:03:16;18.55;;;9.32;;
63959;SDS011;50136;51.374;0.096;2023-10-09T22:13:19;17.52;;;9.90;;
63959;SDS011;50136;51.374;0.096;2023-10-09T22:23:24;13.93;;;7.65;;
63959;SDS011;50136;51.374;0.096;2023-10-09T22:33:28;19.02;;;7.88;;
63959;SDS011;50136;51.374;0.096;2023-10-09T22:43:30;12.25;;;8.10;;
63959;SDS011;50136;51.374;0.096;2023-10-09T22:53:33;12.68;;;7.28;;
63959;SDS011;50136;51.374;0.096;2023-10-09T23:03:35;18.20;;;8.30;;
63959;SDS011;50136;51.374;0.096;2023-10-09T23:13:39;10.68;;;7.30;;
63959;SDS011;50136;51.374;0.096;2023-10-09T23:23:43;12.45;;;7.82;;
63959;SDS011;50136;51.374;0.096;2023-10-09T23:33:47;13.15;;;7.78;;
63959;SDS011;50136;51.374;0.096;2023-10-09T23:43:51;13.10;;;7.53;;
63959;SDS011;50136;51.374;0.096;2023-10-09T23:53:55;12.25;;;7.03;;
